sensor_id;sensor_type;location;lat;lon;timestamp;pressure;altitude;pressure_sealevel;temperature;humidity
70902;BME280;58548;47.210;8.618;2022-12-08T00:01:26;93578.50;;;11.61;38.13
70902;BME280;58548;47.210;8.618;2022-12-08T00:03:53;93573.28;;;11.61;38.65
70902;BME280;58548;47.210;8.618;2022-12-08T00:06:30;93617.41;;;11.90;38.28
70902;BME280;58548;47.210;8.618;2022-12-08T00:09:24;93609.59;;;11.83;38.41
70902;BME280;58548;47.210;8.618;2022-12-08T00:14:38;93571.66;;;11.60;38.75
70902;BME280;58548;47.210;8.618;2022-12-08T00:17:09;93605.53;;;11.87;38.56
70902;BME280;58548;47.210;8.618;2022-12-08T00:19:37;93603.50;;;11.89;38.34
70902;BME280;58548;47.210;8.618;2022-12-08T00:22:08;93554.38;;;11.59;38.78
70902;BME280;58548;47.210;8.618;2022-12-08T00:24:38;93542.31;;;11.58;38.66
70902;BME280;58548;47.210;8.618;2022-12-08T00:27:08;93598.44;;;11.95;38.46
70902;BME280;58548;47.210;8.618;2022-12-08T00:29:34;93521.41;;;11.52;38.17
70902;BME280;58548;47.210;8.618;2022-12-08T00:32:00;93585.19;;;11.89;38.01
70902;BME280;58548;47.210;8.618;2022-12-08T00:34:33;93591.59;;;11.94;38.29
70902;BME280;58548;47.210;8.618;2022-12-08T00:36:59;93575.13;;;11.86;38.02
70902;BME280;58548;47.210;8.618;2022-12-08T00:39:25;93561.50;;;11.77;38.23
70902;BME280;58548;47.210;8.618;2022-12-08T00:41:51;93534.03;;;11.61;37.70
70902;BME280;58548;47.210;8.618;2022-12-08T00:44:38;93522.63;;;11.49;37.62
70902;BME280;58548;47.210;8.618;2022-12-08T00:47:06;93537.06;;;11.58;37.75
70902;BME280;58548;47.210;8.618;2022-12-08T00:49:32;93551.94;;;11.65;37.73
70902;BME280;58548;47.210;8.618;2022-12-08T00:51:58;93588.25;;;11.80;38.08
70902;BME280;58548;47.210;8.618;2022-12-08T00:54:24;93523.47;;;11.36;37.99
70902;BME280;58548;47.210;8.618;2022-12-08T00:56:52;93580.63;;;11.78;38.37
70902;BME280;58548;47.210;8.618;2022-12-08T00:59:18;93533.50;;;11.46;38.15
70902;BME280;58548;47.210;8.618;2022-12-08T01:01:45;93533.94;;;11.43;38.42
70902;BME280;58548;47.210;8.618;2022-12-08T01:04:14;93542.34;;;11.52;37.66
70902;BME280;58548;47.210;8.618;2022-12-08T01:06:41;93580.81;;;11.83;37.62
70902;BME280;58548;47.210;8.618;2022-12-08T01:09:10;93560.78;;;11.64;37.67
70902;BME280;58548;47.210;8.618;2022-12-08T01:11:37;93529.53;;;11.37;38.10
70902;BME280;58548;47.210;8.618;2022-12-08T01:14:08;93534.75;;;11.37;38.17
70902;BME280;58548;47.210;8.618;2022-12-08T01:16:36;93584.06;;;11.72;37.81
70902;BME280;58548;47.210;8.618;2022-12-08T01:19:05;93575.69;;;11.56;37.83
70902;BME280;58548;47.210;8.618;2022-12-08T01:21:36;93566.44;;;11.60;38.22
70902;BME280;58548;47.210;8.618;2022-12-08T01:24:04;93583.66;;;11.75;38.09
70902;BME280;58548;47.210;8.618;2022-12-08T01:26:33;93581.63;;;11.77;38.51
70902;BME280;58548;47.210;8.618;2022-12-08T01:29:01;93584.25;;;11.77;37.90
70902;BME280;58548;47.210;8.618;2022-12-08T01:31:26;93536.09;;;11.46;37.60
70902;BME280;58548;47.210;8.618;2022-12-08T01:33:55;93541.97;;;11.41;38.27
70902;BME280;58548;47.210;8.618;2022-12-08T01:36:27;93528.72;;;11.36;38.04
70902;BME280;58548;47.210;8.618;2022-12-08T01:38:56;93534.34;;;11.40;38.01
70902;BME280;58548;47.210;8.618;2022-12-08T01:41:29;93555.19;;;11.53;38.42
70902;BME280;58548;47.210;8.618;2022-12-08T01:46:28;93582.88;;;11.74;38.12
70902;BME280;58548;47.210;8.618;2022-12-08T01:49:16;93522.28;;;11.39;37.61
70902;BME280;58548;47.210;8.618;2022-12-08T01:51:55;93524.06;;;11.38;38.19
70902;BME280;58548;47.210;8.618;2022-12-08T01:54:30;93529.13;;;11.40;37.66
70902;BME280;58548;47.210;8.618;2022-12-08T01:57:06;93579.25;;;11.69;38.12
70902;BME280;58548;47.210;8.618;2022-12-08T01:59:38;93574.63;;;11.71;37.79
70902;BME280;58548;47.210;8.618;2022-12-08T02:02:10;93560.75;;;11.70;38.45
70902;BME280;58548;47.210;8.618;2022-12-08T02:04:41;93505.41;;;11.35;38.07
70902;BME280;58548;47.210;8.618;2022-12-08T02:07:09;93558.31;;;11.69;38.40
70902;BME280;58548;47.210;8.618;2022-12-08T02:09:39;93550.69;;;11.67;38.50
70902;BME280;58548;47.210;8.618;2022-12-08T02:12:06;93504.22;;;11.30;38.48
70902;BME280;58548;47.210;8.618;2022-12-08T02:14:34;93540.28;;;11.60;38.35
70902;BME280;58548;47.210;8.618;2022-12-08T02:25:22;93530.28;;;11.51;38.22
70902;BME280;58548;47.210;8.618;2022-12-08T02:28:01;93541.47;;;11.65;38.50
70902;BME280;58548;47.210;8.618;2022-12-08T02:36:31;93508.94;;;11.47;38.58
70902;BME280;58548;47.210;8.618;2022-12-08T02:47:08;93511.34;;;11.55;38.52
70902;BME280;58548;47.210;8.618;2022-12-08T02:49:36;93449.56;;;11.22;38.73
70902;BME280;58548;47.210;8.618;2022-12-08T02:54:52;93515.69;;;11.68;38.69
70902;BME280;58548;47.210;8.618;2022-12-08T02:57:52;93515.31;;;11.65;38.76
70902;BME280;58548;47.210;8.618;2022-12-08T03:00:26;93451.16;;;11.23;38.71
70902;BME280;58548;47.210;8.618;2022-12-08T03:11:03;93492.84;;;11.50;38.63
70902;BME280;58548;47.210;8.618;2022-12-08T03:13:51;93460.97;;;11.35;38.58
70902;BME280;58548;47.210;8.618;2022-12-08T03:16:23;93490.81;;;11.52;38.31
70902;BME280;58548;47.210;8.618;2022-12-08T03:19:00;93448.31;;;11.31;38.93
70902;BME280;58548;47.210;8.618;2022-12-08T03:21:34;93443.50;;;11.28;38.98
70902;BME280;58548;47.210;8.618;2022-12-08T03:24:06;93443.91;;;11.25;38.95
70902;BME280;58548;47.210;8.618;2022-12-08T03:26:48;93433.91;;;11.22;39.34
70902;BME280;58548;47.210;8.618;2022-12-08T03:29:15;93447.66;;;11.36;38.89
70902;BME280;58548;47.210;8.618;2022-12-08T03:31:54;93484.34;;;11.61;38.81
70902;BME280;58548;47.210;8.618;2022-12-08T03:34:25;93474.31;;;11.58;38.83
70902;BME280;58548;47.210;8.618;2022-12-08T03:36:53;93474.50;;;11.57;38.90
70902;BME280;58548;47.210;8.618;2022-12-08T03:39:19;93469.06;;;11.58;39.24
70902;BME280;58548;47.210;8.618;2022-12-08T03:41:47;93470.50;;;11.54;38.83
70902;BME280;58548;47.210;8.618;2022-12-08T03:44:15;93399.50;;;11.19;39.02
70902;BME280;58548;47.210;8.618;2022-12-08T03:46:41;93459.44;;;11.52;39.02
70902;BME280;58548;47.210;8.618;2022-12-08T03:49:09;93411.94;;;11.23;38.71
70902;BME280;58548;47.210;8.618;2022-12-08T03:51:35;93400.09;;;11.21;38.98
70902;BME280;58548;47.210;8.618;2022-12-08T03:54:01;93428.59;;;11.36;39.14
70902;BME280;58548;47.210;8.618;2022-12-08T03:56:35;93420.16;;;11.34;39.32
70902;BME280;58548;47.210;8.618;2022-12-08T03:59:05;93439.38;;;11.46;38.99
70902;BME280;58548;47.210;8.618;2022-12-08T04:01:34;93429.31;;;11.50;39.02
70902;BME280;58548;47.210;8.618;2022-12-08T04:04:00;93432.94;;;11.49;39.15
70902;BME280;58548;47.210;8.618;2022-12-08T04:06:29;93445.97;;;11.55;39.31
70902;BME280;58548;47.210;8.618;2022-12-08T04:08:54;93417.72;;;11.39;39.07
70902;BME280;58548;47.210;8.618;2022-12-08T04:11:20;93429.34;;;11.43;39.57
70902;BME280;58548;47.210;8.618;2022-12-08T04:13:48;93408.09;;;11.32;39.06
70902;BME280;58548;47.210;8.618;2022-12-08T04:16:17;93317.97;;;10.78;38.85
70902;BME280;58548;47.210;8.618;2022-12-08T04:18:48;93378.00;;;11.16;39.10
70902;BME280;58548;47.210;8.618;2022-12-08T04:21:15;93430.09;;;11.50;38.79
70902;BME280;58548;47.210;8.618;2022-12-08T04:23:43;93358.44;;;11.00;39.30
70902;BME280;58548;47.210;8.618;2022-12-08T04:26:12;93429.91;;;11.52;39.12
70902;BME280;58548;47.210;8.618;2022-12-08T04:28:41;93374.78;;;11.21;39.05
70902;BME280;58548;47.210;8.618;2022-12-08T04:31:09;93362.56;;;11.15;39.43
70902;BME280;58548;47.210;8.618;2022-12-08T04:33:38;93367.97;;;11.20;39.06
70902;BME280;58548;47.210;8.618;2022-12-08T04:36:09;93373.97;;;11.21;38.72
70902;BME280;58548;47.210;8.618;2022-12-08T04:38:35;93354.34;;;11.11;39.09
70902;BME280;58548;47.210;8.618;2022-12-08T04:41:01;93366.94;;;11.21;38.80
70902;BME280;58548;47.210;8.618;2022-12-08T04:43:27;93406.56;;;11.50;39.29
70902;BME280;58548;47.210;8.618;2022-12-08T04:45:56;93410.78;;;11.51;38.74
70902;BME280;58548;47.210;8.618;2022-12-08T04:48:25;93403.56;;;11.46;38.95
70902;BME280;58548;47.210;8.618;2022-12-08T04:50:50;93389.53;;;11.41;39.26
70902;BME280;58548;47.210;8.618;2022-12-08T04:53:16;93370.72;;;11.25;39.15
70902;BME280;58548;47.210;8.618;2022-12-08T04:55:44;93420.56;;;11.63;38.66
70902;BME280;58548;47.210;8.618;2022-12-08T04:58:17;93420.41;;;11.57;38.74
70902;BME280;58548;47.210;8.618;2022-12-08T05:00:47;93391.34;;;11.40;38.84
70902;BME280;58548;47.210;8.618;2022-12-08T05:03:18;93382.75;;;11.33;39.05
70902;BME280;58548;47.210;8.618;2022-12-08T05:05:46;93424.41;;;11.60;39.11
70902;BME280;58548;47.210;8.618;2022-12-08T05:08:14;93418.38;;;11.59;38.91
70902;BME280;58548;47.210;8.618;2022-12-08T05:10:40;93412.34;;;11.59;39.32
70902;BME280;58548;47.210;8.618;2022-12-08T05:13:10;93412.50;;;11.64;38.86
70902;BME280;58548;47.210;8.618;2022-12-08T05:15:38;93419.97;;;11.60;38.90
70902;BME280;58548;47.210;8.618;2022-12-08T05:18:04;93389.53;;;11.41;38.54
70902;BME280;58548;47.210;8.618;2022-12-08T05:20:31;93353.53;;;11.11;38.98
70902;BME280;58548;47.210;8.618;2022-12-08T05:22:57;93416.28;;;11.43;38.97
70902;BME280;58548;47.210;8.618;2022-12-08T05:25:22;93363.56;;;11.14;39.09
70902;BME280;58548;47.210;8.618;2022-12-08T05:27:51;93369.16;;;11.18;38.88
70902;BME280;58548;47.210;8.618;2022-12-08T05:30:19;93420.66;;;11.49;39.12
70902;BME280;58548;47.210;8.618;2022-12-08T05:32:45;93361.56;;;11.16;38.67
70902;BME280;58548;47.210;8.618;2022-12-08T05:35:13;93365.53;;;11.19;39.05
70902;BME280;58548;47.210;8.618;2022-12-08T05:37:39;93415.63;;;11.48;38.51
70902;BME280;58548;47.210;8.618;2022-12-08T05:40:05;93411.19;;;11.48;38.86
70902;BME280;58548;47.210;8.618;2022-12-08T05:42:33;93357.34;;;11.15;39.43
70902;BME280;58548;47.210;8.618;2022-12-08T05:45:01;93352.91;;;11.15;38.70
70902;BME280;58548;47.210;8.618;2022-12-08T05:47:27;93339.03;;;11.15;39.20
70902;BME280;58548;47.210;8.618;2022-12-08T05:49:55;93397.13;;;11.49;38.98
70902;BME280;58548;47.210;8.618;2022-12-08T05:52:21;93339.47;;;11.12;38.94
70902;BME280;58548;47.210;8.618;2022-12-08T05:54:47;93400.16;;;11.46;38.78
70902;BME280;58548;47.210;8.618;2022-12-08T05:57:15;93390.28;;;11.48;39.01
70902;BME280;58548;47.210;8.618;2022-12-08T05:59:41;93352.53;;;11.12;39.15
70902;BME280;58548;47.210;8.618;2022-12-08T06:02:07;93337.84;;;11.11;39.29
70902;BME280;58548;47.210;8.618;2022-12-08T06:04:38;93339.50;;;11.05;38.79
70902;BME280;58548;47.210;8.618;2022-12-08T06:07:04;93367.38;;;11.18;38.93
70902;BME280;58548;47.210;8.618;2022-12-08T06:09:32;93405.44;;;11.39;38.76
70902;BME280;58548;47.210;8.618;2022-12-08T06:12:01;93356.78;;;11.06;39.24
70902;BME280;58548;47.210;8.618;2022-12-08T06:14:27;93352.75;;;11.04;39.40
70902;BME280;58548;47.210;8.618;2022-12-08T06:16:52;93390.78;;;11.31;39.27
70902;BME280;58548;47.210;8.618;2022-12-08T06:19:21;93391.63;;;11.25;39.17
70902;BME280;58548;47.210;8.618;2022-12-08T06:21:47;93413.31;;;11.32;39.16
70902;BME280;58548;47.210;8.618;2022-12-08T06:24:13;93414.00;;;11.21;39.25
70902;BME280;58548;47.210;8.618;2022-12-08T06:26:39;93414.75;;;11.28;39.62
70902;BME280;58548;47.210;8.618;2022-12-08T06:29:08;93413.94;;;11.28;39.26
70902;BME280;58548;47.210;8.618;2022-12-08T06:31:34;93414.38;;;11.25;39.44
70902;BME280;58548;47.210;8.618;2022-12-08T06:34:04;93405.75;;;11.18;39.43
70902;BME280;58548;47.210;8.618;2022-12-08T06:36:33;93417.78;;;11.25;39.53
70902;BME280;58548;47.210;8.618;2022-12-08T06:38:59;93382.28;;;11.11;38.94
70902;BME280;58548;47.210;8.618;2022-12-08T06:41:28;93299.59;;;10.59;39.33
70902;BME280;58548;47.210;8.618;2022-12-08T06:43:59;93397.88;;;11.24;38.81
70902;BME280;58548;47.210;8.618;2022-12-08T06:46:28;93414.50;;;11.37;39.81
70902;BME280;58548;47.210;8.618;2022-12-08T06:48:53;93410.09;;;11.30;38.98
70902;BME280;58548;47.210;8.618;2022-12-08T06:51:22;93356.97;;;11.05;39.28
70902;BME280;58548;47.210;8.618;2022-12-08T06:53:50;93412.47;;;11.39;39.59
70902;BME280;58548;47.210;8.618;2022-12-08T06:56:16;93365.00;;;11.10;39.08
70902;BME280;58548;47.210;8.618;2022-12-08T06:58:44;93375.34;;;11.23;39.62
70902;BME280;58548;47.210;8.618;2022-12-08T07:01:14;93405.22;;;11.41;39.70
70902;BME280;58548;47.210;8.618;2022-12-08T07:03:40;93361.13;;;11.19;39.47
70902;BME280;58548;47.210;8.618;2022-12-08T07:06:17;93416.78;;;11.58;39.47
70902;BME280;58548;47.210;8.618;2022-12-08T07:08:43;93410.78;;;11.51;39.11
70902;BME280;58548;47.210;8.618;2022-12-08T07:11:12;93403.41;;;11.41;39.00
70902;BME280;58548;47.210;8.618;2022-12-08T07:13:38;93437.28;;;11.61;38.54
70902;BME280;58548;47.210;8.618;2022-12-08T07:16:07;93415.59;;;11.54;39.04
70902;BME280;58548;47.210;8.618;2022-12-08T07:18:34;93413.41;;;11.51;39.39
70902;BME280;58548;47.210;8.618;2022-12-08T07:21:08;93371.59;;;11.19;38.75
70902;BME280;58548;47.210;8.618;2022-12-08T07:23:36;93399.47;;;11.32;38.62
70902;BME280;58548;47.210;8.618;2022-12-08T07:26:04;93407.28;;;11.32;39.42
70902;BME280;58548;47.210;8.618;2022-12-08T07:28:35;93409.50;;;11.28;39.04
70902;BME280;58548;47.210;8.618;2022-12-08T07:31:03;93409.63;;;11.40;39.13
70902;BME280;58548;47.210;8.618;2022-12-08T07:33:32;93358.34;;;11.14;38.94
70902;BME280;58548;47.210;8.618;2022-12-08T07:36:08;93377.13;;;11.29;38.82
70902;BME280;58548;47.210;8.618;2022-12-08T07:38:37;93417.97;;;11.56;39.05
70902;BME280;58548;47.210;8.618;2022-12-08T07:41:03;93422.78;;;11.59;39.22
70902;BME280;58548;47.210;8.618;2022-12-08T07:43:29;93422.00;;;11.58;39.01
70902;BME280;58548;47.210;8.618;2022-12-08T07:45:55;93377.13;;;11.29;39.43
70902;BME280;58548;47.210;8.618;2022-12-08T07:48:23;93429.56;;;11.67;38.93
70902;BME280;58548;47.210;8.618;2022-12-08T07:50:59;93418.56;;;11.65;38.84
70902;BME280;58548;47.210;8.618;2022-12-08T07:53:27;93419.97;;;11.60;38.83
70902;BME280;58548;47.210;8.618;2022-12-08T07:55:56;93414.53;;;11.62;38.81
70902;BME280;58548;47.210;8.618;2022-12-08T07:58:22;93419.50;;;11.70;39.16
70902;BME280;58548;47.210;8.618;2022-12-08T08:00:51;93389.78;;;11.65;38.91
70902;BME280;58548;47.210;8.618;2022-12-08T08:03:19;93359.38;;;11.38;39.22
70902;BME280;58548;47.210;8.618;2022-12-08T08:05:46;93415.81;;;11.78;39.33
70902;BME280;58548;47.210;8.618;2022-12-08T08:08:13;93372.09;;;11.60;38.73
70902;BME280;58548;47.210;8.618;2022-12-08T08:10:39;93368.41;;;11.68;38.83
70902;BME280;58548;47.210;8.618;2022-12-08T08:13:05;93399.16;;;11.98;38.41
70902;BME280;58548;47.210;8.618;2022-12-08T08:15:33;93396.75;;;12.03;38.57
70902;BME280;58548;47.210;8.618;2022-12-08T08:18:00;93399.78;;;12.00;38.18
70902;BME280;58548;47.210;8.618;2022-12-08T08:20:26;93340.81;;;11.72;38.12
70902;BME280;58548;47.210;8.618;2022-12-08T08:22:52;93321.03;;;11.57;38.13
70902;BME280;58548;47.210;8.618;2022-12-08T08:25:21;93392.53;;;12.02;37.67
70902;BME280;58548;47.210;8.618;2022-12-08T08:27:47;93348.00;;;11.76;37.30
70902;BME280;58548;47.210;8.618;2022-12-08T08:30:16;93393.09;;;12.04;37.27
70902;BME280;58548;47.210;8.618;2022-12-08T08:32:44;93279.00;;;11.34;37.35
70902;BME280;58548;47.210;8.618;2022-12-08T08:35:10;93387.22;;;12.09;37.71
70902;BME280;58548;47.210;8.618;2022-12-08T08:37:36;93392.69;;;12.26;37.88
70902;BME280;58548;47.210;8.618;2022-12-08T08:40:03;93379.03;;;12.42;37.40
70902;BME280;58548;47.210;8.618;2022-12-08T08:42:29;93349.66;;;12.40;37.17
70902;BME280;58548;47.210;8.618;2022-12-08T08:44:56;93368.56;;;12.61;36.51
70902;BME280;58548;47.210;8.618;2022-12-08T08:47:22;93396.91;;;12.82;36.02
70902;BME280;58548;47.210;8.618;2022-12-08T08:49:48;93381.69;;;12.91;36.26
70902;BME280;58548;47.210;8.618;2022-12-08T08:52:14;93332.91;;;12.90;35.97
70902;BME280;58548;47.210;8.618;2022-12-08T08:54:40;93383.88;;;13.55;36.57
70902;BME280;58548;47.210;8.618;2022-12-08T08:57:10;93374.34;;;14.09;34.75
70902;BME280;58548;47.210;8.618;2022-12-08T08:59:36;93331.44;;;14.56;34.39
70902;BME280;58548;47.210;8.618;2022-12-08T09:02:08;93388.94;;;15.34;31.57
70902;BME280;58548;47.210;8.618;2022-12-08T09:04:34;93346.34;;;15.20;31.85
70902;BME280;58548;47.210;8.618;2022-12-08T09:07:02;93359.41;;;15.61;32.25
70902;BME280;58548;47.210;8.618;2022-12-08T09:09:28;93377.88;;;16.34;31.12
70902;BME280;58548;47.210;8.618;2022-12-08T09:11:59;93341.00;;;16.79;29.00
70902;BME280;58548;47.210;8.618;2022-12-08T09:14:27;93357.72;;;17.34;29.57
70902;BME280;58548;47.210;8.618;2022-12-08T09:16:55;93336.06;;;17.64;27.90
70902;BME280;58548;47.210;8.618;2022-12-08T09:19:21;93330.50;;;17.93;27.66
70902;BME280;58548;47.210;8.618;2022-12-08T09:21:49;93379.22;;;18.08;27.04
70902;BME280;58548;47.210;8.618;2022-12-08T09:24:15;93320.56;;;17.73;27.18
70902;BME280;58548;47.210;8.618;2022-12-08T09:26:43;93358.41;;;17.84;27.32
70902;BME280;58548;47.210;8.618;2022-12-08T09:29:11;93369.06;;;17.94;27.28
70902;BME280;58548;47.210;8.618;2022-12-08T09:31:40;93343.25;;;18.02;25.92
70902;BME280;58548;47.210;8.618;2022-12-08T09:34:06;93329.41;;;18.27;26.36
70902;BME280;58548;47.210;8.618;2022-12-08T09:36:32;93270.59;;;18.58;26.21
70902;BME280;58548;47.210;8.618;2022-12-08T09:38:58;93373.56;;;19.69;24.49
70902;BME280;58548;47.210;8.618;2022-12-08T09:41:34;93373.03;;;19.67;24.33
70902;BME280;58548;47.210;8.618;2022-12-08T09:46:32;93367.13;;;19.34;24.44
70902;BME280;58548;47.210;8.618;2022-12-08T09:49:01;93364.00;;;19.42;25.10
70902;BME280;58548;47.210;8.618;2022-12-08T09:51:34;93362.88;;;19.23;25.39
70902;BME280;58548;47.210;8.618;2022-12-08T09:54:20;93317.34;;;19.16;24.50
70902;BME280;58548;47.210;8.618;2022-12-08T09:56:53;93356.59;;;19.76;24.80
70902;BME280;58548;47.210;8.618;2022-12-08T10:01:54;93292.44;;;19.01;24.04
70902;BME280;58548;47.210;8.618;2022-12-08T10:04:33;93339.00;;;18.97;24.19
70902;BME280;58548;47.210;8.618;2022-12-08T10:07:37;93319.38;;;18.34;24.82
70902;BME280;58548;47.210;8.618;2022-12-08T10:18:01;93270.63;;;16.52;25.62
70902;BME280;58548;47.210;8.618;2022-12-08T10:20:40;93320.00;;;16.39;26.73
70902;BME280;58548;47.210;8.618;2022-12-08T10:23:15;93320.38;;;16.09;27.44
70902;BME280;58548;47.210;8.618;2022-12-08T10:25:48;93310.97;;;15.79;27.71
70902;BME280;58548;47.210;8.618;2022-12-08T10:28:15;93303.50;;;15.53;28.23
70902;BME280;58548;47.210;8.618;2022-12-08T10:30:43;93228.75;;;14.86;28.65
70902;BME280;58548;47.210;8.618;2022-12-08T10:33:15;93308.38;;;15.16;28.75
70902;BME280;58548;47.210;8.618;2022-12-08T10:35:52;93259.69;;;14.67;29.33
70902;BME280;58548;47.210;8.618;2022-12-08T10:38:25;93266.66;;;14.32;29.83
70902;BME280;58548;47.210;8.618;2022-12-08T10:41:02;93246.84;;;14.13;30.35
70902;BME280;58548;47.210;8.618;2022-12-08T10:43:32;93299.53;;;14.23;31.07
70902;BME280;58548;47.210;8.618;2022-12-08T10:46:11;93285.38;;;14.24;30.93
70902;BME280;58548;47.210;8.618;2022-12-08T10:48:48;93281.16;;;14.23;30.96
70902;BME280;58548;47.210;8.618;2022-12-08T10:53:59;93279.09;;;14.25;30.93
70902;BME280;58548;47.210;8.618;2022-12-08T10:56:32;93265.41;;;14.23;31.13
70902;BME280;58548;47.210;8.618;2022-12-08T10:59:18;93252.38;;;14.28;30.58
70902;BME280;58548;47.210;8.618;2022-12-08T11:01:47;93258.78;;;14.32;31.22
70902;BME280;58548;47.210;8.618;2022-12-08T11:04:22;93268.88;;;14.41;31.50
70902;BME280;58548;47.210;8.618;2022-12-08T11:06:52;93197.34;;;14.33;31.74
70902;BME280;58548;47.210;8.618;2022-12-08T11:11:52;93267.34;;;16.67;29.89
70902;BME280;58548;47.210;8.618;2022-12-08T11:14:25;93256.09;;;17.64;28.14
70902;BME280;58548;47.210;8.618;2022-12-08T11:19:45;93209.84;;;18.89;25.14
70902;BME280;58548;47.210;8.618;2022-12-08T11:22:41;93235.81;;;19.80;23.52
70902;BME280;58548;47.210;8.618;2022-12-08T11:25:14;93209.25;;;20.11;23.20
70902;BME280;58548;47.210;8.618;2022-12-08T11:27:49;93228.66;;;20.61;23.20
70902;BME280;58548;47.210;8.618;2022-12-08T11:30:24;93227.09;;;20.55;21.92
70902;BME280;58548;47.210;8.618;2022-12-08T11:33:04;93220.16;;;19.99;21.90
70902;BME280;58548;47.210;8.618;2022-12-08T11:35:39;93218.34;;;19.63;22.02
70902;BME280;58548;47.210;8.618;2022-12-08T11:38:15;93240.34;;;19.38;23.11
70902;BME280;58548;47.210;8.618;2022-12-08T11:40:52;93230.00;;;19.16;23.45
70902;BME280;58548;47.210;8.618;2022-12-08T11:46:24;93236.38;;;19.46;23.30
70902;BME280;58548;47.210;8.618;2022-12-08T11:49:11;93202.19;;;19.75;21.92
70902;BME280;58548;47.210;8.618;2022-12-08T11:52:04;93215.63;;;20.10;21.38
70902;BME280;58548;47.210;8.618;2022-12-08T11:54:46;93222.00;;;20.09;21.01
70902;BME280;58548;47.210;8.618;2022-12-08T11:57:15;93171.59;;;20.19;21.28
70902;BME280;58548;47.210;8.618;2022-12-08T11:59:50;93208.19;;;20.77;20.75
70902;BME280;58548;47.210;8.618;2022-12-08T12:02:24;93194.78;;;21.33;20.75
70902;BME280;58548;47.210;8.618;2022-12-08T12:04:59;93207.34;;;21.86;20.52
70902;BME280;58548;47.210;8.618;2022-12-08T12:21:48;93189.59;;;24.62;18.32
70902;BME280;58548;47.210;8.618;2022-12-08T12:26:22;93178.63;;;24.49;16.65
70902;BME280;58548;47.210;8.618;2022-12-08T12:31:34;93095.75;;;23.34;16.99
70902;BME280;58548;47.210;8.618;2022-12-08T12:34:23;93170.88;;;23.50;17.59
70902;BME280;58548;47.210;8.618;2022-12-08T12:37:14;93140.50;;;23.51;17.71
70902;BME280;58548;47.210;8.618;2022-12-08T12:39:57;93120.28;;;23.92;18.10
70902;BME280;58548;47.210;8.618;2022-12-08T12:48:18;93170.56;;;25.91;16.86
70902;BME280;58548;47.210;8.618;2022-12-08T12:50:52;93161.50;;;26.10;15.31
70902;BME280;58548;47.210;8.618;2022-12-08T12:55:55;93168.31;;;26.16;15.87
70902;BME280;58548;47.210;8.618;2022-12-08T13:04:01;93167.50;;;25.75;16.06
70902;BME280;58548;47.210;8.618;2022-12-08T13:09:19;93123.34;;;25.01;15.28
70902;BME280;58548;47.210;8.618;2022-12-08T13:12:02;93126.44;;;24.94;15.84
70902;BME280;58548;47.210;8.618;2022-12-08T13:14:48;93155.34;;;25.14;16.23
70902;BME280;58548;47.210;8.618;2022-12-08T13:17:27;93158.59;;;25.34;15.97
70902;BME280;58548;47.210;8.618;2022-12-08T13:20:00;93163.97;;;25.34;16.03
70902;BME280;58548;47.210;8.618;2022-12-08T13:23:01;93165.00;;;25.24;16.30
70902;BME280;58548;47.210;8.618;2022-12-08T13:33:14;93138.72;;;23.60;16.87
70902;BME280;58548;47.210;8.618;2022-12-08T13:35:49;93101.63;;;22.84;16.69
70902;BME280;58548;47.210;8.618;2022-12-08T13:38:21;93144.50;;;22.63;17.54
70902;BME280;58548;47.210;8.618;2022-12-08T13:40:54;93149.50;;;22.02;17.89
70902;BME280;58548;47.210;8.618;2022-12-08T13:43:36;93129.50;;;20.97;18.68
70902;BME280;58548;47.210;8.618;2022-12-08T13:46:08;93125.09;;;20.82;19.27
70902;BME280;58548;47.210;8.618;2022-12-08T13:48:46;93144.81;;;20.66;19.75
70902;BME280;58548;47.210;8.618;2022-12-08T13:51:17;93098.72;;;20.16;19.80
70902;BME280;58548;47.210;8.618;2022-12-08T13:54:03;93153.84;;;20.19;20.00
70902;BME280;58548;47.210;8.618;2022-12-08T13:56:39;93139.44;;;19.65;20.64
70902;BME280;58548;47.210;8.618;2022-12-08T13:59:29;93147.97;;;19.16;20.76
70902;BME280;58548;47.210;8.618;2022-12-08T14:02:19;93143.19;;;19.12;21.58
70902;BME280;58548;47.210;8.618;2022-12-08T14:04:55;93147.44;;;18.98;21.07
70902;BME280;58548;47.210;8.618;2022-12-08T14:07:21;93144.28;;;19.06;21.47
70902;BME280;58548;47.210;8.618;2022-12-08T14:09:51;93143.47;;;19.32;21.59
70902;BME280;58548;47.210;8.618;2022-12-08T14:12:21;93141.59;;;19.37;21.32
70902;BME280;58548;47.210;8.618;2022-12-08T14:14:56;93106.16;;;19.23;21.54
70902;BME280;58548;47.210;8.618;2022-12-08T14:17:23;93134.72;;;19.31;21.66
70902;BME280;58548;47.210;8.618;2022-12-08T14:20:21;93146.09;;;19.21;22.01
70902;BME280;58548;47.210;8.618;2022-12-08T14:22:48;93087.63;;;18.35;22.26
70902;BME280;58548;47.210;8.618;2022-12-08T14:25:16;93135.19;;;18.45;21.99
70902;BME280;58548;47.210;8.618;2022-12-08T14:27:44;93082.13;;;17.68;22.21
70902;BME280;58548;47.210;8.618;2022-12-08T14:32:56;93151.44;;;18.01;22.73
70902;BME280;58548;47.210;8.618;2022-12-08T14:35:31;93144.00;;;17.92;22.99
70902;BME280;58548;47.210;8.618;2022-12-08T14:38:20;93152.66;;;17.77;23.85
70902;BME280;58548;47.210;8.618;2022-12-08T14:43:31;93143.22;;;17.44;23.30
70902;BME280;58548;47.210;8.618;2022-12-08T14:46:03;93087.53;;;16.97;23.54
70902;BME280;58548;47.210;8.618;2022-12-08T14:51:20;93143.56;;;17.10;23.65
70902;BME280;58548;47.210;8.618;2022-12-08T14:53:57;93151.31;;;16.94;24.32
70902;BME280;58548;47.210;8.618;2022-12-08T14:56:34;93105.44;;;16.30;24.32
70902;BME280;58548;47.210;8.618;2022-12-08T14:59:21;93127.00;;;16.27;24.94
70902;BME280;58548;47.210;8.618;2022-12-08T15:01:52;93146.28;;;16.05;25.01
70902;BME280;58548;47.210;8.618;2022-12-08T15:04:27;93123.81;;;15.58;25.05
70902;BME280;58548;47.210;8.618;2022-12-08T15:09:42;93124.34;;;14.99;26.25
70902;BME280;58548;47.210;8.618;2022-12-08T15:14:52;93097.66;;;14.10;27.13
70902;BME280;58548;47.210;8.618;2022-12-08T15:20:52;93133.03;;;13.78;27.71
70902;BME280;58548;47.210;8.618;2022-12-08T15:23:29;93135.13;;;13.52;28.49